createdAt,value
2019-02-19T00:00:36.163Z,3.90
2019-02-19T00:03:38.463Z,4.53
2019-02-19T00:06:40.763Z,3.90
2019-02-19T00:09:43.215Z,3.50
2019-02-19T00:12:45.515Z,3.87
2019-02-19T00:15:47.789Z,4.10
2019-02-19T00:18:50.175Z,3.93
2019-02-19T00:21:52.448Z,4.10
2019-02-19T00:24:55.066Z,3.33
2019-02-19T00:27:57.295Z,3.87
2019-02-19T00:30:59.658Z,4.07
2019-02-19T00:34:02.368Z,4.17
2019-02-19T00:37:04.753Z,4.23
2019-02-19T00:40:08.205Z,4.00
2019-02-19T00:43:10.496Z,4.60
2019-02-19T00:46:12.856Z,4.13
2019-02-19T00:49:15.216Z,4.10
2019-02-19T00:52:17.547Z,3.90
2019-02-19T00:55:19.831Z,3.93
2019-02-19T00:58:23.133Z,3.97
2019-02-19T01:01:25.511Z,4.27
2019-02-19T01:04:27.779Z,4.20
2019-02-19T01:07:30.737Z,4.60
2019-02-19T01:10:33.054Z,3.77
2019-02-19T01:13:35.343Z,4.20
2019-02-19T01:16:38.097Z,4.03
2019-02-19T01:19:41.208Z,3.83
2019-02-19T01:22:44.432Z,4.10
2019-02-19T01:25:46.746Z,3.80
2019-02-19T01:28:49.925Z,4.10
2019-02-19T01:31:52.235Z,3.97
2019-02-19T01:34:54.548Z,3.23
2019-02-19T01:37:56.980Z,3.97
2019-02-19T01:40:59.782Z,4.10
2019-02-19T01:44:02.568Z,3.93
2019-02-19T01:47:04.917Z,3.50
2019-02-19T01:50:07.553Z,4.20
2019-02-19T01:53:09.875Z,4.20
2019-02-19T01:56:12.809Z,4.13
2019-02-19T01:59:15.143Z,4.40
2019-02-19T02:02:17.429Z,5.03
2019-02-19T02:05:19.800Z,4.83
2019-02-19T02:08:22.170Z,4.97
2019-02-19T02:11:24.471Z,4.97
2019-02-19T02:14:26.775Z,4.80
2019-02-19T02:17:29.134Z,5.70
2019-02-19T02:20:31.450Z,4.80
2019-02-19T02:23:33.739Z,5.67
2019-02-19T02:26:36.643Z,5.07
2019-02-19T02:29:38.956Z,5.33
2019-02-19T02:32:41.238Z,5.70
2019-02-19T02:35:43.521Z,5.40
2019-02-19T02:38:45.807Z,5.03
2019-02-19T02:41:48.118Z,5.47
2019-02-19T02:44:50.418Z,5.30
2019-02-19T02:47:52.702Z,4.87
2019-02-19T02:50:55.032Z,4.90
2019-02-19T02:53:57.609Z,6.17
2019-02-19T02:56:59.924Z,6.27
2019-02-19T03:00:02.279Z,5.53
2019-02-19T03:03:04.918Z,5.67
2019-02-19T03:06:12.670Z,5.70
2019-02-19T03:09:14.967Z,6.03
2019-02-19T03:12:17.256Z,5.43
2019-02-19T03:15:19.791Z,5.60
2019-02-19T03:18:22.682Z,6.23
2019-02-19T03:21:25.031Z,6.10
2019-02-19T03:24:27.303Z,5.27
2019-02-19T03:27:29.581Z,4.60
2019-02-19T03:30:31.899Z,5.60
2019-02-19T03:33:34.180Z,5.50
2019-02-19T03:36:36.445Z,7.10
2019-02-19T03:39:38.715Z,5.70
2019-02-19T03:42:41.831Z,5.20
2019-02-19T03:45:44.069Z,5.27
2019-02-19T03:48:46.376Z,5.33
2019-02-19T03:51:49.430Z,5.73
2019-02-19T03:54:51.970Z,5.50
2019-02-19T03:57:54.364Z,6.30
2019-02-19T04:00:56.799Z,5.33
2019-02-19T04:03:59.064Z,5.00
2019-02-19T04:07:01.420Z,6.73
2019-02-19T04:10:04.648Z,6.63
2019-02-19T04:13:07.013Z,6.50
2019-02-19T04:16:09.309Z,6.40
2019-02-19T04:19:11.844Z,5.80
2019-02-19T04:22:14.207Z,6.77
2019-02-19T04:25:16.529Z,5.77
2019-02-19T04:28:18.809Z,6.17
2019-02-19T04:31:21.348Z,4.87
2019-02-19T04:34:23.647Z,5.87
2019-02-19T04:37:25.943Z,5.37
2019-02-19T04:40:28.213Z,6.20
2019-02-19T04:43:30.843Z,6.00
2019-02-19T04:46:33.191Z,6.70
2019-02-19T04:49:36.410Z,7.07
2019-02-19T04:52:39.364Z,7.00
2019-02-19T04:55:41.675Z,5.00
2019-02-19T04:58:43.956Z,6.13
2019-02-19T05:01:46.267Z,5.63
2019-02-19T05:04:48.605Z,6.50
2019-02-19T05:07:50.981Z,6.00
2019-02-19T05:10:53.597Z,5.90
2019-02-19T05:13:55.972Z,6.37
2019-02-19T05:16:58.251Z,5.97
2019-02-19T05:20:00.526Z,6.40
2019-02-19T05:23:03.068Z,7.43
2019-02-19T05:26:05.407Z,6.13
2019-02-19T05:29:07.732Z,6.87
2019-02-19T05:32:11.003Z,5.70
2019-02-19T05:35:13.278Z,5.73
2019-02-19T05:38:15.579Z,5.83
2019-02-19T05:41:18.198Z,6.00
2019-02-19T05:44:20.477Z,6.40
2019-02-19T05:47:23.094Z,5.83
2019-02-19T05:50:26.048Z,6.93
2019-02-19T05:53:28.895Z,6.73
2019-02-19T05:56:31.212Z,6.87
2019-02-19T05:59:33.659Z,6.27
2019-02-19T06:02:36.555Z,6.30
2019-02-19T06:05:38.829Z,6.33
2019-02-19T06:08:41.234Z,6.63
2019-02-19T06:11:43.600Z,5.93
2019-02-19T06:14:45.879Z,6.30
2019-02-19T06:17:48.250Z,6.30
2019-02-19T06:20:50.627Z,6.63
2019-02-19T06:23:53.556Z,6.40
2019-02-19T06:26:55.820Z,9.77
2019-02-19T06:29:58.595Z,11.90
2019-02-19T06:33:00.922Z,9.47
2019-02-19T06:36:03.319Z,6.93
2019-02-19T06:39:05.642Z,5.90
2019-02-19T06:42:07.971Z,7.03
2019-02-19T06:45:10.331Z,7.00
2019-02-19T06:48:12.721Z,6.73
2019-02-19T06:51:15.065Z,6.83
2019-02-19T06:54:17.399Z,6.07
2019-02-19T06:57:20.651Z,7.20
2019-02-19T07:00:23.443Z,7.60
2019-02-19T07:03:30.944Z,7.83
2019-02-19T07:06:33.251Z,8.30
2019-02-19T07:09:35.493Z,9.67
2019-02-19T07:12:38.343Z,7.67
2019-02-19T07:15:40.688Z,7.23
2019-02-19T07:18:43.035Z,7.80
2019-02-19T07:21:45.298Z,7.00
2019-02-19T07:24:47.572Z,7.33
2019-02-19T07:27:49.958Z,8.60
2019-02-19T07:30:52.340Z,8.80
2019-02-19T07:33:54.687Z,7.60
2019-02-19T07:36:57.870Z,8.30
2019-02-19T07:40:00.788Z,8.70
2019-02-19T07:43:03.197Z,7.00
2019-02-19T07:46:05.811Z,8.10
2019-02-19T07:49:08.079Z,8.20
2019-02-19T07:52:10.393Z,8.93
2019-02-19T07:55:12.755Z,8.30
2019-02-19T07:58:15.713Z,8.00
2019-02-19T08:01:18.031Z,7.67
2019-02-19T08:04:21.196Z,8.90
2019-02-19T08:07:23.507Z,7.50
2019-02-19T08:10:26.364Z,8.87
2019-02-19T08:13:29.037Z,9.27
2019-02-19T08:16:31.805Z,8.00
2019-02-19T08:19:34.177Z,8.17
2019-02-19T08:22:36.588Z,8.17
2019-02-19T08:25:38.871Z,7.10
2019-02-19T08:28:42.064Z,7.00
2019-02-19T08:31:44.374Z,6.60
2019-02-19T08:34:46.716Z,6.73
2019-02-19T08:37:49.025Z,6.50
2019-02-19T08:40:51.395Z,7.50
2019-02-19T08:43:53.731Z,7.27
2019-02-19T08:46:56.107Z,6.83
2019-02-19T08:49:58.432Z,7.00
2019-02-19T08:53:00.859Z,6.90
2019-02-19T08:56:03.216Z,6.03
2019-02-19T08:59:05.533Z,6.23
2019-02-19T09:02:07.855Z,6.17
2019-02-19T09:05:10.095Z,5.00
2019-02-19T09:08:12.393Z,5.97
2019-02-19T09:11:14.771Z,5.70
2019-02-19T09:14:17.143Z,5.73
2019-02-19T09:17:19.451Z,5.97
2019-02-19T09:20:21.899Z,5.43
2019-02-19T09:23:24.529Z,6.13
2019-02-19T09:26:26.879Z,6.20
2019-02-19T09:29:29.165Z,5.40
2019-02-19T09:32:31.505Z,5.23
2019-02-19T09:35:33.817Z,4.90
2019-02-19T09:38:36.107Z,4.97
2019-02-19T09:41:38.427Z,5.27
2019-02-19T09:44:40.944Z,4.87
2019-02-19T09:47:43.319Z,4.10
2019-02-19T09:50:45.912Z,4.70
2019-02-19T09:53:48.189Z,4.47
2019-02-19T09:56:50.499Z,5.00
2019-02-19T09:59:52.826Z,4.87
2019-02-19T10:02:55.215Z,5.00
2019-02-19T10:05:58.133Z,5.03
2019-02-19T10:09:00.383Z,5.23
2019-02-19T10:12:02.781Z,4.80
2019-02-19T10:15:06.233Z,5.93
2019-02-19T10:18:10.535Z,5.87
2019-02-19T10:21:11.113Z,5.40
2019-02-19T10:24:13.401Z,5.03
2019-02-19T10:27:15.712Z,4.90
2019-02-19T10:30:18.073Z,5.53
2019-02-19T10:33:20.403Z,4.53
2019-02-19T10:36:23.300Z,4.70
2019-02-19T10:39:25.681Z,4.50
2019-02-19T10:42:28.048Z,4.97
2019-02-19T10:45:30.399Z,4.73
2019-02-19T10:48:32.801Z,4.70
2019-02-19T10:51:36.068Z,4.87
2019-02-19T10:54:38.585Z,4.70
2019-02-19T10:57:41.288Z,4.33
2019-02-19T11:00:43.562Z,4.33
2019-02-19T11:03:45.915Z,4.27
2019-02-19T11:06:48.271Z,4.90
2019-02-19T11:09:50.622Z,4.67
2019-02-19T11:12:52.927Z,4.40
2019-02-19T11:15:55.385Z,4.13
2019-02-19T11:18:57.675Z,3.70
2019-02-19T11:21:59.969Z,4.50
2019-02-19T11:25:02.327Z,4.27
2019-02-19T11:28:04.774Z,4.40
2019-02-19T11:31:07.120Z,4.23
2019-02-19T11:34:09.461Z,4.03
2019-02-19T11:37:11.808Z,4.47
2019-02-19T11:40:14.159Z,4.50
2019-02-19T11:43:16.487Z,4.97
2019-02-19T11:46:18.909Z,4.40
2019-02-19T11:49:21.259Z,4.40
2019-02-19T11:52:23.820Z,4.73
2019-02-19T11:55:26.148Z,4.63
2019-02-19T11:58:28.495Z,5.07
2019-02-19T12:01:30.800Z,4.40
2019-02-19T12:04:33.063Z,4.47
2019-02-19T12:07:35.331Z,4.70
2019-02-19T12:10:37.634Z,4.40
2019-02-19T12:13:39.977Z,3.70
2019-02-19T12:16:42.443Z,4.10
2019-02-19T12:25:03.380Z,3.97
2019-02-19T12:28:05.769Z,4.00
2019-02-19T12:31:08.061Z,3.97
2019-02-19T12:34:10.419Z,4.13
2019-02-19T12:37:12.806Z,4.00
2019-02-19T12:40:15.143Z,4.10
2019-02-19T12:43:17.487Z,4.27
2019-02-19T12:46:19.862Z,3.60
2019-02-19T12:49:22.226Z,3.90
2019-02-19T12:52:24.549Z,3.60
2019-02-19T12:55:26.876Z,3.90
2019-02-19T12:58:29.291Z,3.57
2019-02-19T13:01:31.835Z,4.07
2019-02-19T13:04:34.173Z,3.60
2019-02-19T13:07:36.975Z,3.70
2019-02-19T13:10:38.855Z,3.40
2019-02-19T13:13:41.126Z,3.80
2019-02-19T13:16:43.375Z,3.87
2019-02-19T13:19:45.694Z,5.30
2019-02-19T13:22:48.084Z,3.60
2019-02-19T13:25:51.135Z,3.70
2019-02-19T13:28:54.563Z,3.10
2019-02-19T13:31:56.915Z,3.40
2019-02-19T13:34:59.171Z,3.07
2019-02-19T13:38:01.702Z,3.50
2019-02-19T13:41:04.031Z,2.80
2019-02-19T13:44:06.315Z,2.80
2019-02-19T13:47:08.655Z,2.97
2019-02-19T13:50:13.819Z,2.60
2019-02-19T13:53:28.876Z,3.17
2019-02-19T13:56:31.184Z,2.80
2019-02-19T13:59:33.473Z,3.30
2019-02-19T14:02:35.901Z,3.70
2019-02-19T14:09:11.522Z,2.87
2019-02-19T14:12:13.843Z,2.63
2019-02-19T14:15:21.605Z,3.47
2019-02-19T14:18:30.287Z,2.67
2019-02-19T14:21:39.220Z,2.97
2019-02-19T14:26:50.039Z,3.10
2019-02-19T14:29:58.968Z,3.40
2019-02-19T14:33:11.643Z,2.80
2019-02-19T14:38:21.739Z,2.93
2019-02-19T14:41:46.665Z,3.67
2019-02-19T14:44:53.553Z,3.90
2019-02-19T14:50:04.546Z,3.80
2019-02-19T14:53:17.180Z,3.53
2019-02-19T14:56:25.016Z,3.50
2019-02-19T14:59:37.781Z,3.53
2019-02-19T15:02:45.651Z,3.20
2019-02-19T15:05:55.431Z,3.43
2019-02-19T15:11:06.354Z,3.57
2019-02-19T15:16:17.271Z,4.20
2019-02-19T15:19:25.119Z,3.97
2019-02-19T15:22:50.834Z,3.37
2019-02-19T15:26:18.751Z,4.13
2019-02-19T15:29:31.561Z,3.50
2019-02-19T15:32:39.326Z,3.87
2019-02-19T15:35:51.133Z,3.93
2019-02-19T15:39:02.931Z,3.90
2019-02-19T15:44:15.029Z,3.57
2019-02-19T15:47:27.705Z,3.43
2019-02-19T15:50:35.551Z,3.80
2019-02-19T15:53:43.389Z,3.93
2019-02-19T15:56:51.439Z,4.37
2019-02-19T15:59:58.286Z,4.33
2019-02-19T16:03:07.008Z,4.53
2019-02-19T16:06:15.848Z,3.90
2019-02-19T16:09:28.546Z,3.70
2019-02-19T16:15:53.635Z,3.87
2019-02-19T16:19:02.513Z,3.60
2019-02-19T16:22:40.264Z,4.33
2019-02-19T16:25:52.036Z,3.90
2019-02-19T16:29:10.735Z,3.77
2019-02-19T16:33:16.635Z,3.10
2019-02-19T16:36:26.378Z,4.13
2019-02-19T16:39:40.346Z,4.50
2019-02-19T16:42:51.959Z,3.40
2019-02-19T16:47:27.424Z,3.50
2019-02-19T16:50:37.180Z,3.27
2019-02-19T16:53:45.809Z,3.40
2019-02-19T16:56:57.620Z,3.57
2019-02-19T17:00:04.532Z,3.50
2019-02-19T17:03:29.210Z,4.40
2019-02-19T17:07:38.904Z,3.67
2019-02-19T17:12:47.954Z,3.70
2019-02-19T17:15:55.649Z,4.17
2019-02-19T17:21:07.438Z,4.10
2019-02-19T17:24:19.260Z,4.30
2019-02-19T17:27:26.091Z,4.70
2019-02-19T17:32:39.037Z,4.70
2019-02-19T17:35:47.063Z,4.93
2019-02-19T17:39:58.974Z,5.20
2019-02-19T17:45:08.255Z,5.50
2019-02-19T17:48:16.230Z,22.57
2019-02-19T17:51:24.232Z,7.03
2019-02-19T17:54:32.264Z,6.17
2019-02-19T17:57:49.892Z,5.10
2019-02-19T18:01:00.549Z,5.43
2019-02-19T18:04:10.983Z,5.10
2019-02-19T18:07:47.148Z,4.77
2019-02-19T18:12:00.044Z,4.90
2019-02-19T18:15:12.690Z,6.20
2019-02-19T18:18:25.454Z,6.07
2019-02-19T18:21:27.855Z,6.03
2019-02-19T18:24:30.208Z,6.70
2019-02-19T18:27:32.539Z,6.97
2019-02-19T18:30:34.840Z,6.40
2019-02-19T18:33:37.131Z,6.53
2019-02-19T18:36:39.845Z,7.00
2019-02-19T18:39:42.088Z,8.47
2019-02-19T18:42:44.381Z,8.77
2019-02-19T18:45:46.658Z,7.43
2019-02-19T18:48:48.947Z,9.17
2019-02-19T18:51:51.223Z,7.60
2019-02-19T18:54:53.524Z,6.03
2019-02-19T18:57:55.843Z,8.63
2019-02-19T19:00:58.149Z,7.67
2019-02-19T19:04:00.539Z,7.57
2019-02-19T19:07:02.816Z,8.97
2019-02-19T19:10:05.918Z,8.50
2019-02-19T19:13:08.228Z,7.17
2019-02-19T19:16:10.484Z,9.87
2019-02-19T19:19:12.815Z,8.93
2019-02-19T19:22:15.113Z,9.07
2019-02-19T19:25:17.400Z,8.00
2019-02-19T19:28:19.684Z,8.07
2019-02-19T19:31:22.003Z,8.00
2019-02-19T19:34:24.272Z,8.43
2019-02-19T19:37:26.607Z,8.33
2019-02-19T19:40:28.898Z,8.93
2019-02-19T19:43:31.177Z,8.97
2019-02-19T19:46:33.444Z,8.23
2019-02-19T19:49:35.775Z,9.27
2019-02-19T19:52:38.165Z,9.07
2019-02-19T19:55:40.519Z,10.47
2019-02-19T19:58:42.790Z,9.23
2019-02-19T20:01:45.059Z,9.23
2019-02-19T20:04:47.473Z,11.17
2019-02-19T20:07:49.765Z,8.93
2019-02-19T20:10:52.070Z,9.97
2019-02-19T20:13:54.427Z,10.20
2019-02-19T20:16:56.710Z,11.17
2019-02-19T20:19:59.099Z,9.27
2019-02-19T20:23:01.360Z,9.53
2019-02-19T20:26:03.725Z,9.47
2019-02-19T20:29:06.029Z,9.90
2019-02-19T20:32:08.299Z,9.40
2019-02-19T20:35:10.647Z,9.77
2019-02-19T20:38:12.943Z,11.80
2019-02-19T20:41:15.235Z,14.10
2019-02-19T20:44:17.575Z,10.17
2019-02-19T20:47:19.833Z,10.07
2019-02-19T20:50:22.184Z,10.13
2019-02-19T20:53:24.416Z,10.43
2019-02-19T20:56:26.692Z,9.97
2019-02-19T20:59:28.983Z,10.83
2019-02-19T21:02:31.603Z,12.13
2019-02-19T21:05:33.928Z,9.70
2019-02-19T21:08:36.322Z,10.23
2019-02-19T21:11:38.631Z,10.60
2019-02-19T21:14:40.912Z,10.07
2019-02-19T21:17:43.237Z,9.73
2019-02-19T21:20:45.513Z,10.43
2019-02-19T21:23:47.763Z,11.73
2019-02-19T21:26:50.110Z,10.17
2019-02-19T21:29:52.932Z,10.60
2019-02-19T21:32:55.296Z,10.00
2019-02-19T21:35:58.034Z,11.10
2019-02-19T21:38:59.889Z,10.97
2019-02-19T21:42:02.272Z,10.80
2019-02-19T21:45:04.873Z,10.43
2019-02-19T21:48:07.174Z,10.57
2019-02-19T21:51:09.482Z,10.37
2019-02-19T21:54:11.821Z,10.40
2019-02-19T21:57:14.229Z,9.40
2019-02-19T22:00:17.049Z,10.90
2019-02-19T22:03:19.436Z,10.40
2019-02-19T22:06:21.718Z,10.37
2019-02-19T22:09:24.055Z,10.63
2019-02-19T22:12:26.341Z,9.77
2019-02-19T22:15:28.619Z,9.63
2019-02-19T22:18:30.987Z,11.20
2019-02-19T22:21:38.473Z,10.43
2019-02-19T22:24:40.739Z,10.40
2019-02-19T22:27:43.115Z,11.57
2019-02-19T22:30:46.288Z,10.73
2019-02-19T22:33:51.047Z,10.93
2019-02-19T22:36:53.359Z,11.30
2019-02-19T22:39:55.672Z,12.90
2019-02-19T22:42:57.972Z,10.63
2019-02-19T22:46:00.205Z,11.80
2019-02-19T22:49:02.549Z,11.33
2019-02-19T22:52:12.339Z,12.13
2019-02-19T22:55:12.764Z,11.40
2019-02-19T22:58:15.060Z,12.27
2019-02-19T23:01:24.084Z,11.80
2019-02-19T23:04:26.374Z,11.67
2019-02-19T23:07:28.591Z,11.60
2019-02-19T23:10:30.873Z,13.17
2019-02-19T23:13:33.135Z,13.00
2019-02-19T23:16:35.493Z,12.40
2019-02-19T23:19:37.756Z,11.97
2019-02-19T23:22:39.985Z,12.67
2019-02-19T23:25:42.245Z,12.07
2019-02-19T23:28:44.597Z,12.27
2019-02-19T23:31:46.920Z,11.97
2019-02-19T23:34:53.775Z,13.80
2019-02-19T23:37:56.063Z,14.27
2019-02-19T23:40:58.343Z,15.23
2019-02-19T23:44:00.687Z,13.00
2019-02-19T23:47:02.947Z,14.17
2019-02-19T23:50:05.511Z,15.57
2019-02-19T23:53:07.799Z,14.63
2019-02-19T23:56:10.091Z,13.50
2019-02-19T23:59:12.310Z,13.60
